Time;durP1;ratioP1;P1;durP2;ratioP2;P2;SDS_P1;SDS_P2;PMS_P1;PMS_P2;Temp;Humidity;BMP_temperature;BMP_pressure;BME280_temperature;BME280_humidity;BME280_pressure;Samples;Min_cycle;Max_cycle;Signal;HPM_P1;HPM_P2
2022/07/14 00:01:21;;;;;;;16.83;4.47;;;16.50;99.90;;;;;;5088430;28;20212;-86
2022/07/14 00:03:48;;;;;;;9.03;3.90;;;16.50;99.90;;;;;;5077713;28;20208;-86
2022/07/14 00:06:16;;;;;;;15.43;4.53;;;16.50;99.90;;;;;;5089480;28;20216;-85
2022/07/14 00:08:46;;;;;;;16.60;4.57;;;16.50;99.90;;;;;;5105395;28;20211;-86
2022/07/14 00:11:16;;;;;;;12.73;4.37;;;16.50;99.90;;;;;;5105989;28;20236;-85
2022/07/14 00:13:43;;;;;;;15.00;4.23;;;16.50;99.90;;;;;;5098934;28;20204;-88
2022/07/14 00:16:10;;;;;;;13.83;4.60;;;16.40;99.90;;;;;;5094047;28;20215;-86
2022/07/14 00:18:44;;;;;;;11.10;4.17;;;16.50;99.90;;;;;;5100498;28;20204;-85
2022/07/14 00:21:24;;;;;;;11.13;4.10;;;16.50;99.90;;;;;;5093483;28;20637;-85
2022/07/14 00:23:51;;;;;;;13.23;3.50;;;16.50;99.90;;;;;;5090012;28;20191;-86
2022/07/14 00:26:19;;;;;;;14.07;3.87;;;16.40;99.90;;;;;;5086917;28;20207;-86
2022/07/14 00:28:48;;;;;;;15.53;4.43;;;16.40;99.90;;;;;;5089351;28;20262;-85
2022/07/14 00:31:16;;;;;;;11.20;3.60;;;16.40;99.90;;;;;;5087867;28;20694;-84
2022/07/14 00:33:43;;;;;;;17.53;4.23;;;16.40;99.90;;;;;;5081352;28;20209;-87
2022/07/14 00:36:10;;;;;;;12.63;3.90;;;16.40;99.90;;;;;;5078034;28;20210;-85
2022/07/14 00:38:42;;;;;;;11.70;4.10;;;16.30;99.90;;;;;;5079643;28;20207;-88
2022/07/14 00:41:09;;;;;;;13.73;4.63;;;16.40;99.90;;;;;;5074635;28;20267;-87
2022/07/14 00:43:36;;;;;;;12.10;4.33;;;16.30;99.90;;;;;;5080325;28;20200;-86
2022/07/14 00:46:04;;;;;;;11.77;4.53;;;16.20;99.90;;;;;;5087970;28;20318;-86
2022/07/14 00:48:31;;;;;;;15.07;4.50;;;16.20;99.90;;;;;;5089188;28;20206;-88
2022/07/14 00:50:58;;;;;;;17.77;4.20;;;16.20;99.90;;;;;;5083913;28;20224;-85
2022/07/14 00:53:29;;;;;;;11.50;4.33;;;16.20;99.90;;;;;;5084164;28;20306;-87
2022/07/14 00:56:02;;;;;;;15.83;4.83;;;16.10;99.90;;;;;;5095422;28;20260;-87
2022/07/14 00:58:30;;;;;;;14.67;4.90;;;16.10;99.90;;;;;;5096244;28;20281;-89
2022/07/14 01:00:58;;;;;;;9.33;4.33;;;16.10;99.90;;;;;;5095512;28;20286;-87
2022/07/14 01:03:25;;;;;;;15.40;4.40;;;16.10;99.90;;;;;;5095265;28;20203;-85
2022/07/14 01:05:52;;;;;;;10.83;4.13;;;16.00;99.90;;;;;;5108843;28;20218;-86
2022/07/14 01:08:27;;;;;;;15.80;4.60;;;16.00;99.90;;;;;;5090762;28;20525;-85
2022/07/14 01:10:58;;;;;;;11.83;4.80;;;16.00;99.90;;;;;;5112465;28;20223;-85
2022/07/14 01:13:29;;;;;;;13.83;4.70;;;15.90;99.90;;;;;;5115786;28;20280;-86
2022/07/14 01:16:02;;;;;;;13.43;4.50;;;15.90;99.90;;;;;;5100675;28;20588;-87
2022/07/14 01:18:29;;;;;;;20.73;4.87;;;15.80;99.90;;;;;;5089842;28;20260;-88
2022/07/14 01:20:56;;;;;;;16.07;4.10;;;15.80;99.90;;;;;;5089657;28;20707;-85
2022/07/14 01:23:23;;;;;;;13.00;4.30;;;15.80;99.90;;;;;;5092593;28;20229;-87
2022/07/14 01:25:50;;;;;;;16.60;5.57;;;15.70;99.90;;;;;;5090646;28;20203;-86
2022/07/14 01:28:20;;;;;;;11.07;4.17;;;15.70;99.90;;;;;;5089639;28;20208;-88
2022/07/14 01:30:47;;;;;;;18.73;4.87;;;15.60;99.90;;;;;;5090133;28;20304;-87
2022/07/14 01:33:18;;;;;;;15.40;4.47;;;15.60;99.90;;;;;;5088749;28;20231;-85
2022/07/14 01:35:46;;;;;;;11.20;4.23;;;15.60;99.90;;;;;;5086493;28;20748;-86
2022/07/14 01:38:13;;;;;;;16.83;4.23;;;15.60;99.90;;;;;;5081947;28;20221;-85
2022/07/14 01:40:41;;;;;;;16.23;4.90;;;15.50;99.90;;;;;;5083062;28;20222;-85
2022/07/14 01:43:09;;;;;;;15.70;4.73;;;15.50;99.90;;;;;;5083320;28;20207;-85
2022/07/14 01:45:37;;;;;;;13.33;5.13;;;15.50;99.90;;;;;;5084646;28;20995;-85
2022/07/14 01:48:04;;;;;;;14.73;4.53;;;15.50;99.90;;;;;;5083983;28;20208;-85
2022/07/14 01:50:33;;;;;;;17.53;5.97;;;15.40;99.90;;;;;;5084134;28;20930;-86
2022/07/14 01:53:03;;;;;;;13.13;4.87;;;15.30;99.90;;;;;;5085831;28;20554;-85
2022/07/14 01:55:31;;;;;;;18.43;5.67;;;15.30;99.90;;;;;;5077936;28;20200;-86
2022/07/14 01:57:59;;;;;;;14.83;4.93;;;15.20;99.90;;;;;;5079646;28;20218;-86
2022/07/14 02:00:26;;;;;;;10.10;4.67;;;15.20;99.90;;;;;;5085856;28;20231;-87
2022/07/14 02:02:54;;;;;;;12.27;4.60;;;15.10;99.90;;;;;;5080017;28;20212;-86
2022/07/14 02:05:24;;;;;;;13.10;4.57;;;15.10;99.90;;;;;;5081772;28;20204;-87
2022/07/14 02:07:52;;;;;;;14.47;4.67;;;15.00;99.90;;;;;;5094020;28;20257;-87
2022/07/14 02:13:04;;;;;;;15.87;4.43;;;14.90;99.90;;;;;;5087747;28;20195;-85
2022/07/14 02:15:31;;;;;;;13.63;4.70;;;14.90;99.90;;;;;;5091630;28;20215;-88
2022/07/14 02:17:58;;;;;;;13.73;4.50;;;14.80;99.90;;;;;;5090965;28;20204;-87
2022/07/14 02:20:26;;;;;;;15.67;4.83;;;14.80;99.90;;;;;;5085323;28;20279;-87
2022/07/14 02:22:56;;;;;;;16.30;5.30;;;14.80;99.90;;;;;;5089359;28;20210;-86
2022/07/14 02:25:23;;;;;;;12.77;4.43;;;14.80;99.90;;;;;;5101272;28;20510;-86
2022/07/14 02:27:49;;;;;;;14.33;4.93;;;14.80;99.90;;;;;;5099862;28;20180;-86
2022/07/14 02:30:16;;;;;;;20.87;5.87;;;14.80;99.90;;;;;;5102673;28;20239;-88
2022/07/14 02:32:43;;;;;;;15.80;4.57;;;14.70;99.90;;;;;;5093225;28;20230;-87
2022/07/14 02:35:10;;;;;;;12.10;4.13;;;14.70;99.90;;;;;;5090084;28;20207;-87
2022/07/14 02:37:37;;;;;;;13.77;4.30;;;14.70;99.90;;;;;;5084649;28;20203;-87
2022/07/14 02:40:04;;;;;;;13.70;5.27;;;14.70;99.90;;;;;;5078549;28;20203;-86
2022/07/14 02:42:33;;;;;;;12.30;4.87;;;14.60;99.90;;;;;;5082568;28;20619;-87
2022/07/14 02:45:00;;;;;;;15.20;4.30;;;14.60;99.90;;;;;;5083913;28;20617;-87
2022/07/14 02:47:27;;;;;;;17.80;4.90;;;14.60;99.90;;;;;;5085459;28;20195;-87
2022/07/14 02:49:54;;;;;;;16.73;5.70;;;14.50;99.90;;;;;;5078041;28;20206;-86
2022/07/14 02:52:23;;;;;;;12.40;5.10;;;14.50;99.90;;;;;;5079076;28;20926;-86
2022/07/14 02:54:53;;;;;;;13.10;4.37;;;14.60;99.90;;;;;;5080196;28;20208;-87
2022/07/14 02:57:23;;;;;;;13.57;4.10;;;14.50;99.90;;;;;;5081049;28;20333;-87
2022/07/14 02:59:50;;;;;;;9.37;4.13;;;14.50;99.90;;;;;;5081459;28;20737;-86
2022/07/14 03:02:19;;;;;;;15.77;4.50;;;14.40;99.90;;;;;;5086920;28;20219;-86
2022/07/14 03:04:46;;;;;;;15.50;4.83;;;14.50;99.90;;;;;;5079989;28;21011;-88
2022/07/14 03:07:16;;;;;;;13.17;4.20;;;14.50;99.90;;;;;;5079562;28;20695;-86
2022/07/14 03:09:43;;;;;;;13.17;4.40;;;14.50;99.90;;;;;;5077991;28;20573;-87
2022/07/14 03:12:10;;;;;;;15.97;5.17;;;14.40;99.90;;;;;;5080570;28;20248;-88
2022/07/14 03:14:37;;;;;;;15.07;5.07;;;14.40;99.90;;;;;;5081471;28;20198;-86
2022/07/14 03:17:07;;;;;;;12.57;5.00;;;14.30;99.90;;;;;;5085735;28;20765;-86
2022/07/14 03:19:34;;;;;;;13.17;5.00;;;14.30;99.90;;;;;;5084088;28;20210;-86
2022/07/14 03:22:06;;;;;;;10.53;4.50;;;14.30;99.90;;;;;;5083029;28;20652;-87
2022/07/14 03:24:36;;;;;;;13.77;5.50;;;14.30;99.90;;;;;;5077704;28;20285;-88
2022/07/14 03:27:03;;;;;;;12.97;4.90;;;14.20;99.90;;;;;;5085240;28;20205;-85
2022/07/14 03:29:40;;;;;;;13.23;5.03;;;14.20;99.90;;;;;;5086448;28;20308;-88
2022/07/14 03:32:07;;;;;;;14.53;4.97;;;14.20;99.90;;;;;;5077794;28;20231;-87
2022/07/14 03:34:34;;;;;;;9.33;4.90;;;14.20;99.90;;;;;;5082432;28;20208;-87
2022/07/14 03:37:01;;;;;;;12.47;4.67;;;14.10;99.90;;;;;;5083532;28;20218;-89
2022/07/14 03:39:29;;;;;;;12.60;4.50;;;14.00;99.90;;;;;;5077668;28;20208;-86
2022/07/14 03:41:57;;;;;;;10.37;4.50;;;14.10;99.90;;;;;;5085438;28;20211;-87
2022/07/14 03:44:25;;;;;;;13.20;5.03;;;14.00;99.90;;;;;;5093334;28;20211;-86
2022/07/14 03:46:59;;;;;;;11.73;4.60;;;14.00;99.90;;;;;;5111293;28;20212;-86
2022/07/14 03:49:29;;;;;;;11.03;4.17;;;13.90;99.90;;;;;;5100952;28;20276;-88
2022/07/14 03:51:56;;;;;;;17.57;4.73;;;14.00;99.90;;;;;;5097322;28;20282;-86
2022/07/14 03:54:29;;;;;;;18.43;5.03;;;14.00;99.90;;;;;;5092937;28;20215;-87
2022/07/14 03:56:59;;;;;;;11.37;4.80;;;14.00;99.90;;;;;;5085510;28;20589;-88
2022/07/14 03:59:25;;;;;;;11.10;4.13;;;13.90;99.90;;;;;;5084740;28;20224;-86
2022/07/14 04:01:55;;;;;;;12.80;4.83;;;13.90;99.90;;;;;;5082583;28;20238;-86
2022/07/14 04:04:24;;;;;;;14.43;4.20;;;13.90;99.90;;;;;;5080599;28;20200;-86
2022/07/14 04:07:00;;;;;;;11.20;4.40;;;13.90;99.90;;;;;;5088358;28;20283;-87
2022/07/14 04:09:30;;;;;;;9.83;4.80;;;14.00;99.90;;;;;;5087322;28;20212;-85
2022/07/14 04:11:58;;;;;;;10.40;4.90;;;13.90;99.90;;;;;;5083499;28;20231;-86
2022/07/14 04:14:28;;;;;;;16.57;4.50;;;13.90;99.90;;;;;;5080849;28;20214;-85
2022/07/14 04:16:56;;;;;;;10.60;4.37;;;14.00;99.90;;;;;;5091149;28;20701;-88
2022/07/14 04:19:24;;;;;;;11.60;4.13;;;13.90;99.90;;;;;;5082307;28;20207;-87
2022/07/14 04:21:53;;;;;;;8.70;4.20;;;14.00;99.90;;;;;;5079019;28;20211;-87
2022/07/14 04:24:42;;;;;;;11.67;4.23;;;13.90;99.90;;;;;;5082958;28;20701;-85
2022/07/14 04:27:09;;;;;;;17.60;4.13;;;13.90;99.90;;;;;;5111795;28;20211;-88
2022/07/14 04:29:38;;;;;;;14.20;4.17;;;13.90;99.90;;;;;;5104214;28;20275;-87
2022/07/14 04:32:07;;;;;;;10.37;4.50;;;13.80;99.90;;;;;;5091843;28;20696;-88
2022/07/14 04:35:17;;;;;;;12.37;4.30;;;13.90;99.90;;;;;;5106174;28;20229;-88
2022/07/14 04:37:52;;;;;;;12.00;4.60;;;13.90;99.90;;;;;;5087647;28;20668;-87
2022/07/14 04:40:25;;;;;;;11.57;4.80;;;13.90;99.90;;;;;;5097043;28;20203;-86
2022/07/14 04:42:55;;;;;;;10.93;5.13;;;13.90;99.90;;;;;;5080187;28;20218;-88
2022/07/14 04:45:25;;;;;;;10.97;4.70;;;13.90;99.90;;;;;;5089240;28;20297;-86
2022/07/14 04:47:54;;;;;;;15.93;5.10;;;14.00;99.90;;;;;;5111711;28;20199;-85
2022/07/14 04:53:07;;;;;;;12.17;4.47;;;14.00;99.90;;;;;;5080212;28;20207;-87
2022/07/14 04:55:34;;;;;;;9.50;4.57;;;14.10;99.90;;;;;;5081264;28;20282;-86
2022/07/14 04:58:01;;;;;;;9.17;4.40;;;14.10;99.90;;;;;;5080987;28;20797;-84
2022/07/14 05:00:33;;;;;;;12.63;4.40;;;14.20;99.90;;;;;;5081278;28;20226;-86
2022/07/14 05:03:03;;;;;;;9.17;4.73;;;14.20;99.90;;;;;;5087743;28;20207;-85
2022/07/14 05:05:30;;;;;;;11.80;4.70;;;14.30;99.90;;;;;;5087959;28;20207;-87
2022/07/14 05:07:57;;;;;;;11.50;4.20;;;14.40;99.90;;;;;;5087283;28;20204;-87
2022/07/14 05:10:24;;;;;;;19.93;5.30;;;14.40;99.90;;;;;;5081348;28;20215;-85
2022/07/14 05:12:51;;;;;;;16.23;5.07;;;14.50;99.90;;;;;;5085138;28;20699;-88
2022/07/14 05:15:19;;;;;;;18.23;4.90;;;14.50;99.90;;;;;;5094508;28;20208;-86
2022/07/14 05:17:47;;;;;;;13.60;5.03;;;14.60;99.90;;;;;;5088934;28;20327;-87
2022/07/14 05:20:14;;;;;;;18.03;5.03;;;14.70;99.90;;;;;;5087356;28;20200;-84
2022/07/14 05:22:42;;;;;;;13.43;5.30;;;14.70;99.90;;;;;;5082527;28;20617;-87
2022/07/14 05:25:12;;;;;;;21.03;5.47;;;14.80;99.90;;;;;;5094835;28;20215;-85
2022/07/14 05:27:39;;;;;;;15.87;5.50;;;14.80;99.90;;;;;;5107530;28;20196;-84
2022/07/14 05:30:08;;;;;;;13.40;5.23;;;15.00;99.90;;;;;;5095098;28;20196;-85
2022/07/14 05:32:37;;;;;;;16.17;6.00;;;15.00;99.90;;;;;;5096224;28;20224;-84
2022/07/14 05:35:05;;;;;;;17.17;5.70;;;15.10;99.90;;;;;;5104013;28;20265;-85
2022/07/14 05:37:33;;;;;;;14.63;5.80;;;15.20;99.90;;;;;;5106135;28;20225;-85
2022/07/14 05:40:11;;;;;;;15.10;5.67;;;15.60;99.90;;;;;;5104347;28;20200;-87
2022/07/14 05:42:46;;;;;;;14.13;5.28;;;16.90;99.90;;;;;;5083439;28;20680;-85
2022/07/14 05:45:13;;;;;;;13.85;4.35;;;18.30;99.90;;;;;;5085730;28;20302;-88
2022/07/14 05:47:41;;;;;;;17.42;4.20;;;19.90;99.90;;;;;;5082466;28;20200;-87
2022/07/14 05:50:12;;;;;;;11.32;2.97;;;21.50;99.90;;;;;;5090612;28;20289;-87
2022/07/14 05:52:42;;;;;;;10.80;2.53;;;;;;;;;;5088714;28;20675;-84
2022/07/14 05:55:21;;;;;;;7.20;3.22;;;23.80;99.90;;;;;;5090313;28;20713;-88
2022/07/14 05:57:51;;;;;;;13.80;3.70;;;24.90;99.90;;;;;;5077998;28;20223;-86
2022/07/14 06:00:20;;;;;;;10.10;2.67;;;25.90;99.90;;;;;;5091005;28;20299;-85
2022/07/14 06:03:04;;;;;;;6.43;2.60;;;26.60;99.90;;;;;;5090055;28;20204;-88
2022/07/14 06:05:36;;;;;;;8.10;2.33;;;27.20;99.90;;;;;;5087895;28;20196;-88
2022/07/14 06:08:17;;;;;;;13.38;3.25;;;27.60;99.90;;;;;;5085758;28;20206;-86
2022/07/14 06:10:50;;;;;;;7.55;2.67;;;;;;;;;;5092891;28;20230;-88
2022/07/14 06:13:33;;;;;;;7.70;2.50;;;28.20;99.90;;;;;;5097373;28;20295;-88
2022/07/14 06:16:23;;;;;;;;;;;;;;;;;;;;;
2022/07/14 06:18:53;;;;;;;10.00;2.47;;;29.20;99.90;;;;;;5106171;28;20211;-89
2022/07/14 06:21:25;;;;;;;7.55;2.10;;;29.50;99.70;;;;;;5113016;28;20192;-88
2022/07/14 06:23:57;;;;;;;8.07;2.10;;;29.70;98.60;;;;;;5111323;28;20207;-86
2022/07/14 06:26:24;;;;;;;6.63;1.92;;;29.90;97.30;;;;;;5110590;28;20215;-90
2022/07/14 06:28:55;;;;;;;7.07;1.80;;;30.20;96.60;;;;;;5094936;28;20197;-90
2022/07/14 06:31:25;;;;;;;7.38;1.65;;;30.40;95.00;;;;;;5088352;28;20215;-90
2022/07/14 06:33:53;;;;;;;6.72;1.63;;;30.60;93.70;;;;;;5078635;28;20210;-89
2022/07/14 06:36:26;;;;;;;11.70;2.30;;;30.90;93.30;;;;;;5086190;28;20196;-87
2022/07/14 06:38:53;;;;;;;5.80;1.85;;;31.30;96.80;;;;;;5089101;28;20202;-87
2022/07/14 06:41:21;;;;;;;8.38;2.42;;;31.30;95.10;;;;;;5089211;28;20211;-87
2022/07/14 06:43:49;;;;;;;6.75;1.77;;;31.20;94.10;;;;;;5089212;28;20198;-86
2022/07/14 06:46:17;;;;;;;4.65;1.58;;;31.30;93.80;;;;;;5088533;28;20704;-86
2022/07/14 06:48:46;;;;;;;6.70;2.05;;;31.50;92.90;;;;;;5095073;28;20204;-86
2022/07/14 06:51:18;;;;;;;6.30;2.13;;;31.40;92.40;;;;;;5095086;28;20199;-86
2022/07/14 06:53:50;;;;;;;5.38;2.10;;;31.50;91.70;;;;;;5095631;28;20203;-88
2022/07/14 06:56:17;;;;;;;11.15;3.20;;;31.30;91.30;;;;;;5096489;28;20199;-87
2022/07/14 06:58:44;;;;;;;6.70;2.38;;;31.20;91.50;;;;;;5089182;28;20227;-87
2022/07/14 07:01:13;;;;;;;7.35;2.55;;;31.10;91.70;;;;;;5090631;28;20215;-87
2022/07/14 07:03:42;;;;;;;6.30;2.15;;;31.20;91.60;;;;;;5090147;28;20208;-88
2022/07/14 07:08:57;;;;;;;6.07;2.22;;;31.30;90.80;;;;;;5097635;28;20195;-90
2022/07/14 07:11:27;;;;;;;8.70;2.70;;;31.40;91.80;;;;;;5111695;28;20208;-88
2022/07/14 07:13:59;;;;;;;5.43;1.52;;;31.40;90.70;;;;;;5111668;28;20204;-88
2022/07/14 07:16:26;;;;;;;7.03;2.05;;;31.70;90.80;;;;;;5103000;28;20234;-86
2022/07/14 07:18:57;;;;;;;8.05;2.03;;;31.20;91.00;;;;;;5096020;28;20207;-90
2022/07/14 07:21:30;;;;;;;5.57;1.73;;;31.30;91.10;;;;;;5109270;28;20196;-88
2022/07/14 07:23:57;;;;;;;8.73;1.98;;;31.80;92.20;;;;;;5106635;28;20215;-85
2022/07/14 07:26:25;;;;;;;7.65;1.50;;;31.10;91.60;;;;;;5104116;28;20197;-86
2022/07/14 07:28:55;;;;;;;7.47;1.65;;;31.20;90.30;;;;;;5084384;28;20686;-88
2022/07/14 07:31:35;;;;;;;6.80;1.30;;;31.30;90.70;;;;;;5094208;28;20777;-85
2022/07/14 07:34:03;;;;;;;6.45;1.42;;;31.40;90.80;;;;;;5096191;28;20199;-85
2022/07/14 07:36:36;;;;;;;6.05;1.30;;;31.10;90.60;;;;;;5097611;28;20208;-85
2022/07/14 07:39:23;;;;;;;5.70;1.30;;;31.20;90.90;;;;;;5086153;28;20203;-85
2022/07/14 07:41:55;;;;;;;7.00;1.75;;;31.20;92.00;;;;;;5093543;28;20204;-84
2022/07/14 07:44:22;;;;;;;3.67;1.60;;;30.90;92.20;;;;;;5092630;28;20200;-88
2022/07/14 07:46:49;;;;;;;4.50;1.20;;;31.10;93.90;;;;;;5081898;28;20274;-86
2022/07/14 07:49:17;;;;;;;4.93;1.15;;;30.90;92.00;;;;;;5085965;28;20195;-87
2022/07/14 07:51:46;;;;;;;6.97;1.50;;;31.50;91.10;;;;;;5089212;28;20207;-86
2022/07/14 07:54:14;;;;;;;5.72;1.58;;;31.60;90.30;;;;;;5092665;28;20227;-87
2022/07/14 07:56:45;;;;;;;8.20;1.35;;;31.60;90.00;;;;;;5092863;28;20196;-89
2022/07/14 07:59:15;;;;;;;4.78;1.05;;;31.50;88.00;;;;;;5097597;28;20326;-87
2022/07/14 08:01:43;;;;;;;5.78;1.48;;;31.20;89.00;;;;;;5101634;28;20208;-86
2022/07/14 08:04:10;;;;;;;4.80;1.40;;;30.90;87.20;;;;;;5104359;28;20207;-88
2022/07/14 08:06:38;;;;;;;3.35;1.30;;;30.70;88.10;;;;;;5107813;28;20205;-87
2022/07/14 08:09:10;;;;;;;3.03;1.13;;;30.80;87.60;;;;;;5094948;28;20207;-84
2022/07/14 08:11:45;;;;;;;5.75;1.58;;;30.70;87.50;;;;;;5097674;28;20288;-83
2022/07/14 08:16:58;;;;;;;5.05;1.70;;;31.30;86.40;;;;;;5089082;28;20261;-81
2022/07/14 08:19:26;;;;;;;5.60;1.50;;;31.00;84.90;;;;;;5083027;28;20681;-82
2022/07/14 08:21:54;;;;;;;4.68;1.23;;;31.20;86.40;;;;;;5081651;28;20571;-83
2022/07/14 08:24:23;;;;;;;2.20;0.90;;;31.00;84.10;;;;;;5087618;28;20239;-84
2022/07/14 08:26:53;;;;;;;5.15;1.58;;;31.00;83.80;;;;;;5083035;28;20583;-84
2022/07/14 08:29:20;;;;;;;6.85;2.00;;;31.10;84.50;;;;;;5086220;28;20196;-84
2022/07/14 08:32:17;;;;;;;4.75;1.45;;;31.10;84.10;;;;;;5081168;28;20392;-82
2022/07/14 08:34:44;;;;;;;6.78;1.65;;;30.80;84.60;;;;;;5086831;28;20196;-85
2022/07/14 08:37:17;;;;;;;4.00;1.20;;;31.40;84.40;;;;;;5091024;28;20282;-85
2022/07/14 08:39:44;;;;;;;5.47;1.60;;;31.40;83.90;;;;;;5089394;28;20212;-83
2022/07/14 08:42:14;;;;;;;6.75;1.90;;;31.30;84.90;;;;;;5082429;28;20286;-84
2022/07/14 08:44:42;;;;;;;6.22;1.60;;;31.00;83.70;;;;;;5088226;28;20224;-84
2022/07/14 08:47:17;;;;;;;6.63;2.00;;;31.10;86.00;;;;;;5094923;28;20219;-87
2022/07/14 08:49:56;;;;;;;5.28;1.80;;;30.90;86.20;;;;;;5092118;28;20195;-87
2022/07/14 08:52:46;;;;;;;7.68;1.77;;;30.60;86.40;;;;;;5096080;28;20223;-85
2022/07/14 08:55:30;;;;;;;6.20;1.88;;;30.10;86.20;;;;;;5092007;28;21792;-87
2022/07/14 08:57:57;;;;;;;5.85;1.35;;;30.30;87.70;;;;;;5081169;28;20211;-86
2022/07/14 09:00:25;;;;;;;7.93;2.03;;;30.10;87.70;;;;;;5082603;28;20228;-84
2022/07/14 09:03:06;;;;;;;7.38;1.42;;;30.40;86.40;;;;;;5086049;28;20586;-86
2022/07/14 09:05:44;;;;;;;6.25;1.48;;;30.50;85.20;;;;;;5083199;28;20223;-85
2022/07/14 09:08:14;;;;;;;5.78;1.42;;;30.50;82.10;;;;;;5088155;28;20204;-88
2022/07/14 09:10:43;;;;;;;3.38;1.10;;;30.40;83.20;;;;;;5086335;28;20197;-85
2022/07/14 09:13:31;;;;;;;3.45;1.33;;;30.20;84.30;;;;;;5089592;28;20237;-85
2022/07/14 09:16:22;;;;;;;8.25;1.90;;;30.30;88.20;;;;;;5091175;28;20230;-87
2022/07/14 09:19:25;;;;;;;2.75;1.15;;;30.10;94.70;;;;;;5086163;28;20211;-86
2022/07/14 09:21:59;;;;;;;4.30;1.30;;;29.60;94.70;;;;;;5106258;28;20210;-85
2022/07/14 09:24:32;;;;;;;63.28;7.13;;;29.70;94.40;;;;;;5090559;28;20267;-84
2022/07/14 09:27:00;;;;;;;5.00;1.70;;;30.00;94.50;;;;;;5091980;28;20229;-83
2022/07/14 09:29:29;;;;;;;4.47;1.50;;;30.10;93.90;;;;;;5091328;28;20938;-86
2022/07/14 09:31:57;;;;;;;4.97;1.50;;;30.00;93.40;;;;;;5093414;28;20581;-82
2022/07/14 09:34:32;;;;;;;4.93;1.25;;;30.10;94.40;;;;;;5091869;28;20230;-84
2022/07/14 09:37:15;;;;;;;16.55;3.33;;;29.50;85.20;;;;;;5090243;28;20196;-84
2022/07/14 09:39:57;;;;;;;6.40;1.70;;;29.00;88.20;;;;;;5089885;28;20637;-84
2022/07/14 09:42:57;;;;;;;5.95;1.60;;;29.40;89.30;;;;;;5089739;28;20292;-89
2022/07/14 09:45:32;;;;;;;3.60;1.40;;;29.30;81.10;;;;;;5096056;28;20227;-92
2022/07/14 09:48:16;;;;;;;4.72;1.58;;;29.30;81.00;;;;;;5095895;28;20463;-89
2022/07/14 09:50:57;;;;;;;4.28;1.42;;;30.20;77.30;;;;;;5091969;28;20215;-91
2022/07/14 09:53:35;;;;;;;;;;;;;;;;;;;;;
2022/07/14 09:56:08;;;;;;;5.07;1.73;;;29.90;79.30;;;;;;5093647;28;20224;-90
2022/07/14 09:58:51;;;;;;;;;;;;;;;;;;;;;
2022/07/14 10:01:29;;;;;;;3.83;1.58;;;29.70;78.70;;;;;;5093533;28;20239;-90
2022/07/14 10:04:02;;;;;;;9.32;1.27;;;29.40;79.30;;;;;;5092379;28;20238;-90
2022/07/14 10:06:44;;;;;;;3.90;1.10;;;29.30;78.90;;;;;;5091147;28;20245;-85
2022/07/14 10:09:13;;;;;;;2.67;1.23;;;29.20;78.30;;;;;;5091891;28;20261;-87
2022/07/14 10:11:40;;;;;;;3.97;1.10;;;29.40;77.90;;;;;;5090910;28;20207;-88
2022/07/14 10:14:08;;;;;;;5.53;1.45;;;29.60;77.20;;;;;;5088720;28;20228;-89
2022/07/14 10:16:37;;;;;;;5.47;1.20;;;29.80;76.90;;;;;;5090038;28;20273;-87
2022/07/14 10:19:05;;;;;;;5.13;1.52;;;30.00;77.30;;;;;;5084398;28;20324;-88
2022/07/14 10:21:46;;;;;;;5.63;1.65;;;30.00;77.70;;;;;;5089048;28;20290;-86
2022/07/14 10:24:19;;;;;;;6.13;1.38;;;30.00;74.60;;;;;;5088583;28;20700;-87
2022/07/14 10:26:46;;;;;;;6.45;1.27;;;29.90;75.30;;;;;;5087633;28;20219;-86
2022/07/14 10:29:19;;;;;;;4.15;1.00;;;29.70;76.80;;;;;;5089011;28;20192;-87
2022/07/14 10:32:06;;;;;;;2.42;1.05;;;29.50;75.70;;;;;;5093306;28;20215;-87
2022/07/14 10:35:13;;;;;;;5.60;0.90;;;29.60;74.60;;;;;;5091663;28;20211;-86
2022/07/14 10:38:18;;;;;;;5.50;1.25;;;29.50;74.90;;;;;;5080832;28;20668;-85
2022/07/14 10:40:55;;;;;;;3.85;1.02;;;29.40;74.50;;;;;;5092007;28;20871;-85
2022/07/14 10:43:39;;;;;;;2.38;1.10;;;29.10;74.40;;;;;;5087351;28;20230;-82
2022/07/14 10:46:07;;;;;;;3.55;1.08;;;29.00;73.50;;;;;;5084746;28;20223;-85
2022/07/14 10:48:36;;;;;;;9.00;1.30;;;28.90;73.90;;;;;;5086656;28;20286;-85
2022/07/14 10:51:21;;;;;;;231.30;18.48;;;28.90;73.00;;;;;;5093641;28;20668;-83
2022/07/14 10:54:08;;;;;;;3.88;0.95;;;28.90;74.60;;;;;;5090645;28;20254;-82
2022/07/14 10:57:31;;;;;;;3.28;1.02;;;28.80;74.10;;;;;;5109804;28;20200;-91
2022/07/14 10:59:58;;;;;;;3.80;1.05;;;28.70;72.70;;;;;;5103773;28;20723;-86
2022/07/14 11:02:25;;;;;;;2.63;1.00;;;28.40;72.00;;;;;;5093750;28;20231;-83
2022/07/14 11:05:02;;;;;;;3.17;1.33;;;28.40;73.90;;;;;;5090389;28;20259;-83
2022/07/14 11:07:35;;;;;;;3.05;1.00;;;28.40;73.60;;;;;;5095574;28;20248;-90
2022/07/14 11:10:04;;;;;;;3.15;0.98;;;28.30;74.80;;;;;;5099866;28;20211;-82
2022/07/14 11:12:34;;;;;;;4.05;1.23;;;28.20;75.30;;;;;;5096497;28;20231;-87
2022/07/14 11:15:02;;;;;;;2.80;1.10;;;28.20;75.30;;;;;;5095113;28;20282;-88
2022/07/14 11:17:39;;;;;;;3.20;1.23;;;28.10;75.40;;;;;;5094954;28;20280;-90
2022/07/14 11:20:11;;;;;;;2.72;1.10;;;28.00;74.40;;;;;;5093494;28;20222;-88
2022/07/14 11:22:40;;;;;;;3.50;1.10;;;28.00;75.10;;;;;;5093067;28;20204;-84
2022/07/14 11:25:25;;;;;;;2.35;1.00;;;27.90;74.60;;;;;;5092762;28;20203;-84
2022/07/14 11:27:52;;;;;;;2.42;1.52;;;27.90;73.70;;;;;;5095743;28;20204;-86
2022/07/14 11:30:21;;;;;;;3.17;1.20;;;27.80;74.40;;;;;;5095788;28;20696;-86
2022/07/14 11:33:08;;;;;;;3.47;1.20;;;27.70;74.90;;;;;;5093676;28;20247;-86
2022/07/14 11:38:45;;;;;;;4.72;1.05;;;27.60;76.50;;;;;;5094221;28;20294;-85
2022/07/14 11:41:13;;;;;;;4.00;1.15;;;27.50;76.10;;;;;;5095065;28;20683;-85
2022/07/14 11:43:50;;;;;;;2.50;0.90;;;27.50;75.30;;;;;;5093235;28;20203;-85
2022/07/14 11:46:24;;;;;;;3.83;1.08;;;27.40;76.90;;;;;;5094973;28;20216;-87
2022/07/14 11:48:54;;;;;;;3.00;1.00;;;27.30;77.50;;;;;;5098592;28;20204;-88
2022/07/14 11:51:29;;;;;;;1.80;0.90;;;27.20;77.70;;;;;;5095170;28;20261;-87
2022/07/14 11:54:17;;;;;;;2.08;1.10;;;27.20;78.40;;;;;;5082402;28;20224;-88
2022/07/14 11:56:45;;;;;;;5.40;0.90;;;27.20;78.30;;;;;;5081663;28;20610;-88
2022/07/14 11:59:20;;;;;;;5.05;1.10;;;27.30;78.20;;;;;;5090594;28;20238;-87
2022/07/14 12:01:47;;;;;;;4.50;1.05;;;27.30;79.10;;;;;;5085156;28;20250;-90
2022/07/14 12:04:21;;;;;;;3.38;1.00;;;27.20;79.10;;;;;;5087161;28;20207;-87
2022/07/14 12:06:52;;;;;;;2.75;1.00;;;27.30;79.70;;;;;;5090382;28;20719;-86
2022/07/14 12:09:32;;;;;;;3.03;1.10;;;27.30;78.50;;;;;;5088678;28;20196;-87
2022/07/14 12:12:11;;;;;;;3.67;1.25;;;27.40;77.40;;;;;;5088342;28;20204;-88
2022/07/14 12:14:50;;;;;;;3.78;0.80;;;27.40;77.90;;;;;;5097274;28;20227;-88
2022/07/14 12:17:19;;;;;;;2.88;1.00;;;27.50;78.00;;;;;;5101133;28;20207;-87
2022/07/14 12:19:48;;;;;;;4.70;0.90;;;27.60;77.80;;;;;;5098781;28;20203;-87
2022/07/14 12:22:18;;;;;;;3.30;0.73;;;27.60;77.90;;;;;;5098560;28;20204;-86
2022/07/14 12:24:45;;;;;;;1.80;1.02;;;27.50;78.30;;;;;;5094747;28;20712;-87
2022/07/14 12:27:21;;;;;;;2.70;0.90;;;27.50;78.40;;;;;;5089476;28;20542;-88
2022/07/14 12:29:50;;;;;;;1.95;0.80;;;27.50;77.70;;;;;;5088492;28;20315;-88
2022/07/14 12:32:24;;;;;;;3.25;1.15;;;27.60;76.80;;;;;;5085252;28;20280;-87
2022/07/14 12:34:58;;;;;;;1.33;0.70;;;27.70;76.50;;;;;;5086467;28;20265;-87
2022/07/14 12:37:25;;;;;;;3.05;0.80;;;27.80;74.30;;;;;;5086785;28;20215;-87
2022/07/14 12:40:14;;;;;;;3.47;0.90;;;27.90;73.40;;;;;;5090297;28;20280;-90
2022/07/14 12:42:49;;;;;;;4.65;0.90;;;27.80;74.20;;;;;;5088598;28;20212;-88
2022/07/14 12:45:19;;;;;;;2.78;1.10;;;27.80;72.40;;;;;;5092411;28;20224;-87
2022/07/14 12:47:54;;;;;;;2.25;1.13;;;27.80;71.60;;;;;;5090834;28;20192;-90
2022/07/14 12:50:27;;;;;;;4.00;0.90;;;27.60;70.60;;;;;;5098480;28;20701;-89
2022/07/14 12:52:58;;;;;;;1.50;0.85;;;27.60;71.10;;;;;;5093606;28;20223;-83
2022/07/14 12:55:44;;;;;;;1.95;0.75;;;27.70;71.20;;;;;;5082847;28;20273;-85
2022/07/14 12:58:12;;;;;;;2.78;0.70;;;28.00;70.20;;;;;;5083152;28;20207;-85
2022/07/14 13:00:44;;;;;;;1.42;0.75;;;28.20;70.40;;;;;;5086210;28;20321;-82
2022/07/14 13:03:19;;;;;;;2.60;0.65;;;28.30;69.90;;;;;;5086832;28;20293;-81
2022/07/14 13:05:48;;;;;;;2.28;0.80;;;;;;;;;;5084383;28;20740;-85
2022/07/14 13:08:38;;;;;;;2.67;0.93;;;28.10;72.10;;;;;;5084264;28;20200;-85
2022/07/14 13:11:10;;;;;;;2.83;1.20;;;28.00;70.20;;;;;;5081635;28;20257;-87
2022/07/14 13:13:49;;;;;;;1.45;0.88;;;27.70;71.20;;;;;;5085496;28;20235;-87
2022/07/14 13:16:24;;;;;;;1.30;0.90;;;27.50;72.40;;;;;;5091396;28;20215;-84
2022/07/14 13:19:14;;;;;;;2.53;0.70;;;27.50;71.70;;;;;;5084338;28;20282;-87
2022/07/14 13:21:56;;;;;;;3.28;1.17;;;27.60;71.60;;;;;;5088206;28;20200;-85
2022/07/14 13:24:41;;;;;;;2.10;0.90;;;27.70;71.70;;;;;;5083836;28;20223;-86